Time;durP1;ratioP1;P1;durP2;ratioP2;P2;SDS_P1;SDS_P2;PMS_P1;PMS_P2;Temp;Humidity;BMP_temperature;BMP_pressure;BME280_temperature;BME280_humidity;BME280_pressure;Samples;Min_cycle;Max_cycle;Signal;HPM_P1;HPM_P2
2022/07/26 00:01:58;;;;;;;;;;;;;;;22.44;61.07;98470.84;5042839;27;102940;-72
2022/07/26 00:04:25;;;;;;;;;;;;;;;22.69;60.04;98474.03;5038580;27;104206;-72
2022/07/26 00:06:53;;;;;;;;;;;;;;;22.87;59.24;98479.81;5045234;27;104032;-72
2022/07/26 00:09:21;;;;;;;;;;;;;;;22.84;60.03;98483.72;5066583;27;102574;-72
2022/07/26 00:11:48;;;;;;;;;;;;;;;22.89;59.34;98491.22;5063438;27;103775;-72
2022/07/26 00:14:17;;;;;;;;;;;;;;;22.94;58.97;98491.44;5051671;27;107216;-72
2022/07/26 00:16:45;;;;;;;;;;;;;;;22.91;59.82;98494.53;5060838;27;103541;-72
2022/07/26 00:19:13;;;;;;;;;;;;;;;22.75;60.27;98494.81;5064574;27;103799;-72
2022/07/26 00:21:43;;;;;;;;;;;;;;;22.85;60.00;98496.16;5061612;27;104323;-72
2022/07/26 00:24:11;;;;;;;;;;;;;;;22.89;60.06;98493.91;5064403;27;104113;-71
2022/07/26 00:26:38;;;;;;;;;;;;;;;22.88;60.58;98486.84;5062414;27;103125;-72
2022/07/26 00:29:06;;;;;;;;;;;;;;;22.68;60.64;98491.22;5047140;27;103494;-72
2022/07/26 00:31:36;;;;;;;;;;;;;;;22.87;60.61;98488.72;5063350;27;102674;-72
2022/07/26 00:34:03;;;;;;;;;;;;;;;22.87;60.85;98482.50;5064915;27;104127;-72
2022/07/26 00:36:31;;;;;;;;;;;;;;;22.90;60.85;98482.94;5066305;27;103117;-72
2022/07/26 00:38:58;;;;;;;;;;;;;;;23.00;59.79;98493.38;5060100;27;102852;-72
2022/07/26 00:41:26;;;;;;;;;;;;;;;23.08;59.88;98491.38;5059437;27;104997;-72
2022/07/26 00:43:55;;;;;;;;;;;;;;;23.15;59.75;98488.75;5044903;27;104193;-72
2022/07/26 00:46:23;;;;;;;;;;;;;;;23.20;59.45;98490.84;5062188;27;103344;-72
2022/07/26 00:48:52;;;;;;;;;;;;;;;23.28;58.92;98496.91;5062620;27;102696;-72
2022/07/26 00:51:20;;;;;;;;;;;;;;;23.24;59.42;98495.66;5062296;27;103716;-72
2022/07/26 00:53:50;;;;;;;;;;;;;;;23.31;59.24;98493.84;5052589;27;104697;-72
2022/07/26 00:56:18;;;;;;;;;;;;;;;23.31;59.90;98503.78;5063872;27;103139;-72
2022/07/26 00:58:45;;;;;;;;;;;;;;;23.24;59.64;98503.75;5046940;27;102772;-72
2022/07/26 01:01:13;;;;;;;;;;;;;;;23.03;60.59;98509.16;5041371;27;102749;-72
2022/07/26 01:03:41;;;;;;;;;;;;;;;23.03;60.57;98517.22;5060391;27;103962;-72
2022/07/26 01:06:10;;;;;;;;;;;;;;;23.15;59.98;98526.47;5063397;27;103156;-72
2022/07/26 01:08:38;;;;;;;;;;;;;;;23.00;62.61;98558.03;5065146;27;104206;-72
2022/07/26 01:11:06;;;;;;;;;;;;;;;22.69;67.27;98581.72;5047714;27;103731;-72
2022/07/26 05:08:25;;;;;;;2.78;2.58;;;;;;;19.51;93.54;98566.53;5116407;27;102724;-71
2022/07/26 05:10:53;;;;;;;2.25;1.88;;;;;;;19.77;92.66;98571.69;5128931;27;103971;-70
2022/07/26 05:13:23;;;;;;;1.73;1.63;;;;;;;19.96;91.32;98576.63;5123728;27;104129;-71
2022/07/26 05:15:58;;;;;;;2.30;2.00;;;;;;;20.18;91.93;98570.53;5098328;27;105236;-70
2022/07/26 05:18:29;;;;;;;4.30;2.00;;;;;;;20.33;89.67;98567.13;5116471;27;103756;-73
2022/07/26 05:21:10;;;;;;;1.73;1.63;;;;;;;20.54;88.43;98570.06;5114572;27;103498;-71
2022/07/26 05:23:40;;;;;;;2.25;2.10;;;;;;;20.63;87.25;98575.19;5116232;27;103355;-69
2022/07/26 05:26:07;;;;;;;2.20;1.98;;;;;;;20.58;86.50;98574.03;5108816;27;103487;-70
2022/07/26 05:28:37;;;;;;;2.85;2.25;;;;;;;20.62;86.06;98578.06;5125456;27;102678;-68
2022/07/26 05:31:06;;;;;;;4.15;2.20;;;;;;;20.78;85.19;98577.94;5124256;27;102958;-68
2022/07/26 05:33:34;;;;;;;2.45;2.25;;;;;;;20.76;86.01;98579.97;5117747;27;103331;-68
2022/07/26 05:36:01;;;;;;;4.20;2.35;;;;;;;20.70;86.62;98581.53;5120423;27;103298;-70
2022/07/26 05:38:29;;;;;;;2.58;2.08;;;;;;;20.68;84.90;98588.09;5124066;27;102602;-69
2022/07/26 05:40:58;;;;;;;3.33;3.03;;;;;;;20.73;85.91;98580.31;5109923;27;102923;-69
2022/07/26 05:43:27;;;;;;;3.83;2.17;;;;;;;20.83;85.30;98580.09;5098821;27;104605;-69
2022/07/26 05:46:09;;;;;;;2.95;2.30;;;;;;;20.89;84.66;98579.38;5096317;27;104127;-70
2022/07/26 05:48:37;;;;;;;2.50;2.30;;;;;;;20.77;84.70;98584.34;5116859;27;102700;-70
2022/07/26 05:51:08;;;;;;;3.47;2.28;;;;;;;20.78;85.13;98583.31;5112538;27;103087;-70
2022/07/26 05:53:36;;;;;;;2.10;1.90;;;;;;;21.11;83.45;98587.47;5114654;27;103859;-70
2022/07/26 05:56:06;;;;;;;3.78;2.00;;;;;;;21.11;83.19;98592.84;5119088;27;103196;-70
2022/07/26 05:58:34;;;;;;;5.10;2.85;;;;;;;21.14;82.28;98584.41;5121870;27;102945;-69
2022/07/26 06:01:02;;;;;;;2.92;2.20;;;;;;;21.23;82.62;98586.03;5119043;27;102710;-72
2022/07/26 06:03:31;;;;;;;3.65;2.13;;;;;;;21.13;82.01;98592.66;5109018;27;103808;-72
2022/07/26 06:05:59;;;;;;;5.50;2.83;;;;;;;21.32;81.10;98582.25;5118356;27;103179;-70
2022/07/26 06:08:27;;;;;;;5.53;2.35;;;;;;;21.29;80.48;98587.16;5112250;27;102719;-72
2022/07/26 06:10:56;;;;;;;5.50;2.70;;;;;;;21.39;80.06;98585.88;5126274;27;103645;-70
2022/07/26 06:13:25;;;;;;;2.83;1.90;;;;;;;21.64;79.03;98585.66;5116962;27;103254;-70
2022/07/26 06:15:53;;;;;;;3.85;2.15;;;;;;;21.62;78.28;98583.13;5096929;27;103282;-71
2022/07/26 06:18:21;;;;;;;4.55;2.28;;;;;;;21.61;77.58;98586.03;5109703;27;103484;-71
2022/07/26 06:20:49;;;;;;;3.03;1.95;;;;;;;21.82;77.91;98586.97;5107437;27;103953;-72
2022/07/26 06:23:17;;;;;;;2.95;2.10;;;;;;;21.84;75.96;98587.59;5106324;27;103232;-71
2022/07/26 07:57:06;;;;;;;2.67;1.30;;;;;;;25.17;49.55;98581.72;4938826;28;104822;-65
2022/07/26 07:59:33;;;;;;;2.35;1.30;;;;;;;25.40;49.68;98576.75;4903864;28;103191;-66
2022/07/26 08:02:08;;;;;;;2.17;1.13;;;;;;;25.51;48.16;98578.84;4742462;29;103443;-66
2022/07/26 08:04:36;;;;;;;2.80;1.20;;;;;;;25.43;48.42;98581.75;4725767;29;102948;-63
2022/07/26 08:07:04;;;;;;;3.85;1.15;;;;;;;26.04;47.73;98573.38;4756523;29;103995;-63
2022/07/26 08:09:32;;;;;;;2.70;1.20;;;;;;;25.61;47.63;98579.25;4774695;29;104449;-62
2022/07/26 08:12:01;;;;;;;3.33;1.17;;;;;;;25.67;47.65;98583.00;4765625;29;102694;-63
2022/07/26 08:14:30;;;;;;;5.32;1.20;;;;;;;25.53;47.66;98571.38;4765127;29;102958;-62
2022/07/26 08:16:58;;;;;;;1.70;0.95;;;;;;;26.22;46.19;98568.13;4761968;29;104008;-63
2022/07/26 08:19:26;;;;;;;3.10;0.97;;;;;;;26.74;45.77;98569.78;4765049;29;103333;-63
2022/07/26 08:22:09;;;;;;;2.50;0.97;;;;;;;26.99;44.87;98574.25;4757524;29;102796;-62
2022/07/26 08:24:37;;;;;;;2.63;1.00;;;;;;;27.23;45.63;98579.94;4764606;29;103056;-63
2022/07/26 08:27:05;;;;;;;2.80;1.10;;;;;;;26.56;44.84;98584.03;4763709;29;103313;-63
2022/07/26 08:29:35;;;;;;;1.88;0.93;;;;;;;27.30;44.41;98583.44;4762672;29;104282;-67
2022/07/26 08:32:03;;;;;;;2.95;1.10;;;;;;;26.49;43.25;98588.66;4764870;29;103061;-62
2022/07/26 08:34:31;;;;;;;2.78;1.30;;;;;;;26.48;44.86;98577.00;4758583;29;103130;-62
2022/07/26 08:37:00;;;;;;;3.65;1.23;;;;;;;25.90;44.44;98586.09;4762267;29;103339;-66
2022/07/26 08:39:44;;;;;;;4.15;1.00;;;;;;;26.25;44.64;98581.22;4761315;29;103330;-66
2022/07/26 08:42:15;;;;;;;2.72;1.00;;;;;;;27.29;42.97;98582.59;4763503;29;102675;-63
2022/07/26 08:44:46;;;;;;;2.33;1.00;;;;;;;26.52;44.07;98579.28;4764744;29;102762;-63
2022/07/26 08:47:16;;;;;;;2.03;0.95;;;;;;;27.29;44.17;98584.47;4762206;29;103498;-67
2022/07/26 08:50:05;;;;;;;2.22;0.95;;;;;;;27.49;43.24;98579.75;4763414;29;103296;-67
2022/07/26 08:52:33;;;;;;;2.28;1.13;;;;;;;28.65;41.48;98581.50;4764526;29;102698;-66
2022/07/26 08:55:01;;;;;;;1.97;1.03;;;;;;;26.71;42.98;98584.59;4729843;29;103162;-67
2022/07/26 08:57:29;;;;;;;4.63;1.33;;;;;;;27.46;42.75;98588.34;4740627;29;104145;-62
2022/07/26 09:00:20;;;;;;;4.13;1.42;;;;;;;28.93;43.51;98588.22;4730966;29;103201;-63
2022/07/26 09:02:48;;;;;;;3.38;1.02;;;;;;;26.83;43.28;98591.03;4743631;29;103274;-63
2022/07/26 09:05:18;;;;;;;2.63;1.20;;;;;;;27.81;42.57;98589.50;4780633;29;103988;-63
2022/07/26 09:07:46;;;;;;;3.63;1.50;;;;;;;28.06;41.30;98590.31;4831210;28;103514;-66
2022/07/26 09:10:16;;;;;;;4.40;1.00;;;;;;;27.97;41.77;98593.50;4822206;29;103492;-67
2022/07/26 09:12:44;;;;;;;2.35;1.00;;;;;;;29.22;41.06;98588.22;4826322;29;103471;-63
2022/07/26 09:15:22;;;;;;;2.97;1.10;;;;;;;28.86;40.95;98591.03;4833924;28;104105;-67
2022/07/26 09:17:54;;;;;;;1.80;1.00;;;;;;;29.18;39.62;98599.78;4818767;29;104318;-67
2022/07/26 09:20:24;;;;;;;2.40;0.93;;;;;;;29.42;38.42;98603.44;4821147;29;103214;-63
2022/07/26 09:23:03;;;;;;;3.50;1.00;;;;;;;29.84;37.99;98596.88;4822462;29;102984;-67
2022/07/26 09:25:33;;;;;;;1.95;0.90;;;;;;;29.38;37.63;98592.19;4819050;29;103014;-67
2022/07/26 09:28:02;;;;;;;2.35;0.95;;;;;;;30.11;37.88;98595.34;4820388;29;103743;-67
2022/07/26 09:30:32;;;;;;;1.90;0.95;;;;;;;30.04;37.08;98602.78;4813817;29;103324;-68
2022/07/26 09:33:02;;;;;;;1.92;1.10;;;;;;;28.80;38.84;98610.97;4797054;29;103044;-67
2022/07/26 09:35:32;;;;;;;2.08;0.80;;;;;;;28.72;38.46;98605.84;4820996;29;103389;-67
2022/07/26 09:38:18;;;;;;;2.50;0.90;;;;;;;29.82;37.55;98599.00;4818005;29;104140;-67
2022/07/26 09:40:46;;;;;;;1.58;0.80;;;;;;;28.08;40.41;98609.91;4819081;29;103284;-67
2022/07/26 09:43:19;;;;;;;1.85;1.00;;;;;;;29.76;37.86;98610.81;4819747;29;103052;-67
2022/07/26 09:46:04;;;;;;;1.98;0.90;;;;;;;27.75;40.21;98616.69;4819978;29;103217;-67
2022/07/26 09:48:36;;;;;;;2.10;0.80;;;;;;;28.21;40.13;98611.69;4821515;29;104583;-64
2022/07/26 09:51:35;;;;;;;3.00;1.08;;;;;;;28.61;39.18;98617.47;4823694;29;103209;-63
2022/07/26 09:54:07;;;;;;;2.33;0.88;;;;;;;28.71;38.97;98606.94;4836511;28;103110;-67
2022/07/26 09:56:44;;;;;;;2.15;0.80;;;;;;;28.36;40.38;98622.16;4822412;29;103286;-67
2022/07/26 09:59:16;;;;;;;1.58;0.70;;;;;;;28.52;39.67;98627.81;4822546;29;103342;-67
2022/07/26 10:01:46;;;;;;;3.30;1.00;;;;;;;28.62;39.72;98624.56;4822695;29;103192;-67
2022/07/26 10:04:15;;;;;;;1.48;0.95;;;;;;;30.01;37.58;98622.31;4819266;28;103042;-67
2022/07/26 10:06:44;;;;;;;2.95;1.02;;;;;;;28.48;39.58;98623.91;4836922;28;102992;-67
2022/07/26 10:09:13;;;;;;;2.27;0.93;;;;;;;28.34;40.28;98637.84;4839526;29;103299;-67
2022/07/26 10:11:44;;;;;;;3.10;1.03;;;;;;;26.68;42.28;98635.66;4840213;29;103242;-67
2022/07/26 10:14:34;;;;;;;2.20;0.90;;;;;;;27.81;41.60;98632.91;4838407;28;102999;-67
2022/07/26 10:17:44;;;;;;;2.40;1.02;;;;;;;27.74;41.38;98626.72;4837330;29;103940;-67
2022/07/26 10:20:40;;;;;;;2.10;1.03;;;;;;;28.77;40.16;98637.81;4839564;29;103277;-67
2022/07/26 10:23:38;;;;;;;2.15;0.85;;;;;;;28.94;41.34;98633.41;4822799;28;103213;-67
2022/07/26 10:26:08;;;;;;;2.63;1.02;;;;;;;29.86;39.14;98633.72;4830674;28;103000;-67
2022/07/26 10:28:37;;;;;;;2.53;0.93;;;;;;;29.79;38.78;98626.66;4839222;28;103041;-67
2022/07/26 10:31:28;;;;;;;1.83;1.00;;;;;;;29.43;38.50;98626.84;4831381;28;103468;-67
2022/07/26 10:33:59;;;;;;;2.33;0.90;;;;;;;29.35;38.49;98635.34;4839257;28;103323;-67
2022/07/26 10:36:33;;;;;;;3.80;1.20;;;;;;;29.70;38.13;98628.09;4840662;28;103092;-67
2022/07/26 10:39:08;;;;;;;1.80;1.10;;;;;;;30.37;38.46;98624.81;4840410;28;102706;-67
2022/07/26 10:41:39;;;;;;;1.30;0.82;;;;;;;28.97;40.55;98639.19;4836863;28;103841;-67
2022/07/26 10:44:13;;;;;;;1.83;1.00;;;;;;;30.63;36.58;98622.63;4838739;29;103230;-64
2022/07/26 10:46:55;;;;;;;1.98;1.13;;;;;;;30.30;36.22;98629.56;4826008;28;103446;-63
2022/07/26 10:49:30;;;;;;;3.30;1.00;;;;;;;29.41;37.98;98623.53;4843052;29;103148;-63
2022/07/26 10:52:06;;;;;;;3.50;1.30;;;;;;;29.69;37.61;98621.00;4840968;28;103409;-68
2022/07/26 10:55:05;;;;;;;1.90;1.00;;;;;;;29.50;37.20;98622.97;4842147;29;103207;-67
2022/07/26 10:57:35;;;;;;;1.55;1.02;;;;;;;29.56;37.85;98638.34;4842510;28;102727;-67
2022/07/26 11:00:09;;;;;;;2.15;1.00;;;;;;;29.51;38.83;98629.22;4843713;28;103925;-67
2022/07/26 11:02:37;;;;;;;1.30;1.00;;;;;;;29.28;37.01;98635.44;4872798;28;104569;-67
2022/07/26 11:05:12;;;;;;;2.80;0.90;;;;;;;28.55;38.09;98630.06;4924919;28;103456;-67
2022/07/26 11:08:00;;;;;;;1.95;1.00;;;;;;;29.04;38.34;98639.13;4964533;28;102774;-67
2022/07/26 11:10:31;;;;;;;1.77;0.90;;;;;;;29.71;37.92;98636.03;4968173;28;103850;-66
2022/07/26 11:13:11;;;;;;;4.43;1.20;;;;;;;27.66;39.07;98640.56;4964684;28;103367;-65
2022/07/26 11:15:42;;;;;;;3.20;0.80;;;;;;;28.97;39.05;98641.09;4964648;28;103213;-66
2022/07/26 11:18:23;;;;;;;1.88;0.90;;;;;;;29.99;36.25;98632.63;4967917;28;102605;-66
2022/07/26 11:20:54;;;;;;;1.40;0.90;;;;;;;29.00;36.60;98637.91;4966003;28;103516;-66
2022/07/26 11:23:31;;;;;;;1.50;0.82;;;;;;;27.59;39.07;98626.22;4950693;28;104048;-66
2022/07/26 11:26:05;;;;;;;1.67;0.90;;;;;;;29.67;37.58;98617.69;4963139;28;103461;-66
2022/07/26 11:28:48;;;;;;;3.13;1.20;;;;;;;29.48;38.31;98635.13;4954246;28;102827;-67
2022/07/26 11:31:16;;;;;;;1.60;1.03;;;;;;;28.70;36.55;98621.56;4968475;28;102993;-66
2022/07/26 11:33:50;;;;;;;2.97;1.05;;;;;;;29.01;36.04;98629.53;4946933;28;103238;-66
2022/07/26 11:36:32;;;;;;;1.70;0.75;;;;;;;28.66;37.57;98625.81;4957015;28;103398;-66
2022/07/26 11:39:00;;;;;;;2.03;0.98;;;;;;;28.51;36.74;98622.63;4927826;28;102647;-66
2022/07/26 11:41:31;;;;;;;1.63;1.00;;;;;;;29.27;36.29;98626.47;4917975;28;103150;-66
2022/07/26 11:44:03;;;;;;;1.30;0.80;;;;;;;28.22;37.64;98628.78;4954140;28;104824;-66
2022/07/26 11:46:34;;;;;;;1.42;0.70;;;;;;;29.12;36.09;98620.59;4932279;28;103223;-66
2022/07/26 11:49:04;;;;;;;1.70;1.00;;;;;;;30.21;34.64;98619.25;4949193;28;102981;-62
2022/07/26 11:51:34;;;;;;;1.30;0.70;;;;;;;30.03;34.50;98617.50;4944104;28;102869;-62
2022/07/26 11:54:03;;;;;;;1.23;0.70;;;;;;;29.59;35.79;98624.28;4950090;28;103274;-62
2022/07/26 11:56:32;;;;;;;0.90;0.80;;;;;;;29.45;35.43;98625.56;4951632;28;103456;-66
2022/07/26 11:59:00;;;;;;;1.20;0.90;;;;;;;28.66;36.38;98625.81;4937902;28;102865;-62
2022/07/26 12:01:28;;;;;;;2.80;0.80;;;;;;;29.40;35.73;98621.88;4945283;28;105271;-62
2022/07/26 12:03:57;;;;;;;1.83;0.77;;;;;;;29.40;35.89;98608.25;4948551;28;104599;-61
2022/07/26 12:06:27;;;;;;;3.40;0.80;;;;;;;30.08;33.89;98619.50;4969308;28;103262;-66
2022/07/26 12:08:58;;;;;;;1.40;0.70;;;;;;;29.89;33.75;98610.63;4968599;28;102916;-66
2022/07/26 12:11:38;;;;;;;1.15;0.80;;;;;;;29.64;35.15;98613.50;4971181;28;103553;-62
2022/07/26 12:14:07;;;;;;;2.60;0.70;;;;;;;30.00;34.58;98606.25;4968550;28;103238;-61
2022/07/26 12:16:40;;;;;;;1.57;0.90;;;;;;;27.86;36.56;98619.50;4967996;28;103192;-62
2022/07/26 12:19:23;;;;;;;2.30;0.82;;;;;;;27.65;36.94;98622.59;4964711;28;103117;-62
2022/07/26 12:21:54;;;;;;;1.63;0.80;;;;;;;29.11;34.86;98607.22;4956549;28;102684;-62
2022/07/26 12:24:38;;;;;;;1.95;0.63;;;;;;;29.24;35.28;98601.63;4968347;28;103419;-62
2022/07/26 12:27:12;;;;;;;2.10;0.82;;;;;;;28.93;35.25;98613.53;4962870;28;103072;-62
2022/07/26 12:29:42;;;;;;;0.75;0.68;;;;;;;29.83;34.48;98598.78;4952806;28;102863;-66
2022/07/26 12:32:13;;;;;;;1.87;0.90;;;;;;;29.17;34.88;98600.84;4968566;28;102821;-66
2022/07/26 12:34:56;;;;;;;1.33;0.73;;;;;;;27.71;37.63;98610.88;4970691;28;103491;-62
2022/07/26 12:37:25;;;;;;;1.70;0.80;;;;;;;28.83;35.68;98615.94;4987459;28;103259;-62
2022/07/26 12:48:19;;;;;;;2.83;0.73;;;;;;;27.97;36.40;98599.78;4978463;28;103610;-63
2022/07/26 12:50:47;;;;;;;0.80;0.70;;;;;;;28.14;35.88;98603.59;4982548;28;103304;-62
2022/07/26 12:53:15;;;;;;;1.27;0.63;;;;;;;28.80;35.20;98594.66;4983372;28;102909;-62
2022/07/26 12:55:43;;;;;;;3.67;0.70;;;;;;;29.28;34.49;98594.63;4981052;28;102864;-66
2022/07/26 12:58:12;;;;;;;2.42;0.75;;;;;;;30.36;32.98;98586.88;4968397;28;103519;-62
2022/07/26 13:00:40;;;;;;;0.90;0.77;;;;;;;30.03;32.92;98598.44;4978232;28;103215;-62
2022/07/26 13:03:08;;;;;;;0.70;0.53;;;;;;;30.82;31.46;98583.25;4959316;28;103183;-62
2022/07/26 13:05:38;;;;;;;1.55;0.70;;;;;;;30.73;31.76;98579.22;4941545;28;102904;-62
2022/07/26 13:08:06;;;;;;;1.80;0.80;;;;;;;29.57;32.41;98591.03;4941775;28;104235;-62
2022/07/26 13:10:34;;;;;;;1.10;0.60;;;;;;;29.59;33.53;98593.50;4940787;28;103721;-62
2022/07/26 13:13:03;;;;;;;2.38;1.63;;;;;;;30.70;31.94;98586.00;4936447;28;103022;-62
2022/07/26 13:15:31;;;;;;;1.58;0.70;;;;;;;29.86;32.83;98594.75;4942698;28;103966;-62
2022/07/26 13:18:06;;;;;;;1.50;0.90;;;;;;;29.39;32.92;98587.59;4940653;28;103063;-62
2022/07/26 13:20:38;;;;;;;1.13;0.70;;;;;;;29.67;33.36;98574.94;4940494;28;103419;-62
2022/07/26 13:23:08;;;;;;;1.85;0.70;;;;;;;29.46;33.61;98578.25;4873245;28;103201;-62
2022/07/26 13:25:38;;;;;;;2.30;0.80;;;;;;;28.07;33.84;98575.66;4944730;28;103206;-62
2022/07/26 13:28:08;;;;;;;1.23;0.70;;;;;;;29.77;33.11;98563.47;4935075;28;103358;-62
2022/07/26 13:30:41;;;;;;;2.17;0.90;;;;;;;30.36;32.36;98563.19;4927452;28;103294;-62
2022/07/26 13:33:10;;;;;;;1.50;0.70;;;;;;;30.10;31.83;98560.16;4934323;28;104077;-62
2022/07/26 13:35:41;;;;;;;1.17;0.70;;;;;;;29.99;32.58;98575.44;4933470;28;104070;-62
2022/07/26 13:38:11;;;;;;;0.75;0.65;;;;;;;28.88;33.70;98575.34;4924913;28;103267;-62
2022/07/26 13:40:39;;;;;;;1.48;0.70;;;;;;;29.81;33.22;98570.16;4934286;28;103187;-62
2022/07/26 13:43:07;;;;;;;2.00;0.70;;;;;;;29.98;32.84;98560.16;4934013;28;102942;-67
2022/07/26 13:45:35;;;;;;;1.08;0.80;;;;;;;28.96;33.32;98561.41;4930513;28;102932;-66
2022/07/26 13:48:04;;;;;;;1.40;0.90;;;;;;;29.72;32.43;98555.19;4944248;28;103337;-66
2022/07/26 13:50:32;;;;;;;1.73;0.80;;;;;;;29.76;33.18;98553.63;4934768;28;104734;-62
2022/07/26 13:53:02;;;;;;;2.13;0.80;;;;;;;29.60;32.59;98546.19;4932844;28;104615;-62
2022/07/26 13:55:30;;;;;;;0.70;0.70;;;;;;;29.16;33.26;98556.50;4937685;28;102956;-66
2022/07/26 13:57:58;;;;;;;1.90;0.80;;;;;;;29.19;34.40;98549.78;4937830;28;104177;-66
2022/07/26 14:00:28;;;;;;;1.90;0.90;;;;;;;29.42;33.21;98549.03;4937112;28;103818;-66
2022/07/26 14:02:58;;;;;;;0.97;0.70;;;;;;;29.60;32.40;98546.19;4939012;28;102860;-62
2022/07/26 14:05:27;;;;;;;1.52;0.77;;;;;;;30.28;32.71;98544.50;4947166;28;102735;-62
2022/07/26 14:07:56;;;;;;;3.33;0.90;;;;;;;30.26;32.04;98546.63;4923837;28;103430;-64
2022/07/26 14:10:26;;;;;;;0.70;0.52;;;;;;;29.72;32.59;98544.31;4937292;28;103346;-66
2022/07/26 14:12:54;;;;;;;1.80;0.80;;;;;;;28.18;35.40;98553.19;4930564;28;103308;-66
2022/07/26 14:15:22;;;;;;;1.23;0.60;;;;;;;28.74;34.99;98549.41;4931596;28;103339;-66
2022/07/26 14:17:51;;;;;;;1.83;0.70;;;;;;;28.26;34.70;98560.22;4932853;28;103527;-66
2022/07/26 14:20:19;;;;;;;1.23;0.80;;;;;;;29.30;33.09;98546.28;4942567;28;103867;-66
2022/07/26 14:22:47;;;;;;;1.30;0.80;;;;;;;29.36;32.62;98548.06;4940109;28;103285;-62
2022/07/26 14:25:15;;;;;;;1.10;0.60;;;;;;;29.40;32.11;98546.53;4953128;28;104188;-61
2022/07/26 14:27:45;;;;;;;2.55;0.80;;;;;;;29.68;31.92;98543.09;4936667;28;103259;-62
2022/07/26 14:30:13;;;;;;;1.65;0.70;;;;;;;28.13;33.56;98544.91;4958059;28;103337;-62
2022/07/26 14:32:41;;;;;;;1.98;0.90;;;;;;;28.81;33.23;98550.13;4956037;28;103337;-61
2022/07/26 14:35:10;;;;;;;2.03;0.80;;;;;;;29.66;32.38;98539.81;4942977;28;102944;-62
2022/07/26 14:37:38;;;;;;;0.90;0.70;;;;;;;30.01;32.16;98537.91;4949487;28;104117;-62
2022/07/26 14:40:13;;;;;;;2.33;0.75;;;;;;;30.22;31.75;98540.00;4948820;28;103600;-62
2022/07/26 14:42:41;;;;;;;1.05;0.80;;;;;;;29.94;32.98;98531.78;4954360;28;103071;-62
2022/07/26 14:45:11;;;;;;;1.55;0.73;;;;;;;30.37;33.16;98536.81;4936440;28;102848;-62
2022/07/26 14:47:39;;;;;;;1.43;0.80;;;;;;;29.31;32.07;98540.59;4940941;28;103792;-62
2022/07/26 14:50:09;;;;;;;2.00;0.73;;;;;;;29.91;31.25;98548.59;4952641;28;103238;-62
2022/07/26 14:52:38;;;;;;;1.50;0.80;;;;;;;30.01;30.62;98532.44;4932096;28;102757;-62
2022/07/26 14:55:08;;;;;;;1.60;0.70;;;;;;;30.04;30.74;98537.44;4945086;28;103170;-62
2022/07/26 14:57:36;;;;;;;2.50;0.90;;;;;;;29.85;31.40;98544.09;4944138;28;103424;-62
2022/07/26 15:00:08;;;;;;;1.90;0.85;;;;;;;28.83;33.96;98545.28;4949894;28;103239;-61
2022/07/26 15:02:43;;;;;;;1.93;0.70;;;;;;;27.36;35.99;98541.88;4941462;28;104444;-62
2022/07/26 15:05:13;;;;;;;1.50;0.97;;;;;;;27.39;36.72;98541.44;4888037;28;102944;-62
2022/07/26 15:07:42;;;;;;;2.17;0.80;;;;;;;27.83;36.37;98537.69;4930347;28;103295;-62
2022/07/26 15:10:12;;;;;;;2.35;0.80;;;;;;;28.15;35.11;98531.91;4901440;28;104033;-62
2022/07/26 15:12:42;;;;;;;1.50;0.70;;;;;;;28.03;34.48;98538.34;4902915;28;103646;-63
2022/07/26 15:15:10;;;;;;;1.10;0.80;;;;;;;27.97;34.63;98540.03;4929832;28;102760;-61
2022/07/26 15:17:42;;;;;;;1.13;0.70;;;;;;;28.35;34.72;98539.03;4931142;28;103948;-62
2022/07/26 15:20:10;;;;;;;2.20;0.85;;;;;;;27.97;36.17;98529.19;4930462;28;103281;-62
2022/07/26 15:22:38;;;;;;;1.45;0.75;;;;;;;28.03;35.08;98536.47;4897710;28;102787;-62
2022/07/26 15:25:07;;;;;;;2.13;0.80;;;;;;;28.35;34.74;98530.88;4899266;28;103809;-62
2022/07/26 15:27:35;;;;;;;1.00;0.60;;;;;;;28.78;35.25;98526.13;4925852;28;104660;-61
2022/07/26 15:30:07;;;;;;;1.93;0.83;;;;;;;28.96;34.96;98528.78;4931960;28;103624;-62
2022/07/26 15:32:43;;;;;;;2.47;1.00;;;;;;;29.35;35.21;98521.91;4932481;28;104319;-61
2022/07/26 15:35:13;;;;;;;2.20;0.80;;;;;;;29.05;34.65;98515.69;4917232;28;103220;-61
2022/07/26 15:37:43;;;;;;;3.40;0.80;;;;;;;28.71;34.59;98525.41;4913514;28;104115;-61
2022/07/26 15:40:12;;;;;;;1.95;0.65;;;;;;;28.08;35.70;98514.88;4931071;28;103802;-61
2022/07/26 15:42:42;;;;;;;2.85;0.80;;;;;;;28.30;35.47;98517.13;4931571;28;102633;-62
2022/07/26 15:45:13;;;;;;;1.80;0.90;;;;;;;28.79;35.02;98511.47;4931631;28;102809;-61
2022/07/26 15:47:41;;;;;;;1.33;0.80;;;;;;;27.47;35.72;98516.75;4929958;28;103439;-61
2022/07/26 15:50:31;;;;;;;1.20;0.68;;;;;;;28.10;36.11;98514.66;4928359;28;103236;-61
2022/07/26 15:52:59;;;;;;;1.50;0.70;;;;;;;28.20;36.20;98512.25;4931381;28;102679;-61
2022/07/26 15:55:27;;;;;;;2.28;1.10;;;;;;;28.32;35.71;98520.47;4933468;28;102969;-62
2022/07/26 15:57:55;;;;;;;2.13;0.88;;;;;;;27.65;36.71;98514.06;4905325;28;103283;-62
2022/07/26 16:00:23;;;;;;;1.67;0.77;;;;;;;28.06;37.08;98522.44;4926793;28;103328;-61
2022/07/26 16:02:51;;;;;;;2.28;0.95;;;;;;;27.82;36.39;98515.13;4937738;28;102824;-61
2022/07/26 16:05:19;;;;;;;1.23;0.80;;;;;;;26.86;37.60;98519.31;4943611;28;103671;-62
2022/07/26 16:07:49;;;;;;;1.60;0.73;;;;;;;27.30;38.07;98511.03;4963090;28;103950;-61
2022/07/26 16:10:17;;;;;;;2.13;0.80;;;;;;;27.10;37.76;98510.38;4951011;28;103180;-62
2022/07/26 16:12:45;;;;;;;2.22;1.00;;;;;;;27.28;37.13;98504.19;4950780;28;103876;-61
2022/07/26 16:15:14;;;;;;;2.00;0.75;;;;;;;27.92;36.71;98503.78;4951107;28;103298;-61
2022/07/26 16:17:42;;;;;;;3.00;0.80;;;;;;;28.11;36.08;98497.31;4948802;28;103514;-61
2022/07/26 16:20:10;;;;;;;1.50;0.90;;;;;;;26.96;37.20;98509.63;4949336;28;104161;-61
2022/07/26 16:22:40;;;;;;;1.90;0.90;;;;;;;27.44;36.74;98498.22;4947030;28;102981;-62
2022/07/26 16:25:12;;;;;;;1.40;0.90;;;;;;;27.65;36.63;98500.50;4960052;28;105516;-61
2022/07/26 16:27:41;;;;;;;2.05;0.82;;;;;;;28.16;36.05;98495.56;4952384;28;103223;-66
2022/07/26 16:30:11;;;;;;;1.60;0.88;;;;;;;27.49;36.54;98501.91;4949060;28;103201;-67
2022/07/26 16:32:40;;;;;;;2.88;1.10;;;;;;;27.62;37.11;98495.53;4938151;28;102738;-66
2022/07/26 16:35:09;;;;;;;2.63;0.82;;;;;;;27.63;36.38;98497.19;4950068;28;103110;-66
2022/07/26 16:37:40;;;;;;;1.17;0.80;;;;;;;27.96;36.39;98492.22;4947329;28;103352;-67
2022/07/26 16:40:11;;;;;;;0.93;0.70;;;;;;;28.13;36.23;98496.03;4951159;28;103776;-66
2022/07/26 16:42:41;;;;;;;2.03;0.80;;;;;;;28.47;35.44;98491.00;4951299;28;103513;-66
2022/07/26 16:45:09;;;;;;;1.63;0.93;;;;;;;28.36;35.63;98489.03;4943957;28;103232;-65
2022/07/26 16:47:40;;;;;;;2.53;0.90;;;;;;;27.75;36.54;98495.41;4958041;28;103385;-66
2022/07/26 16:50:08;;;;;;;2.85;1.20;;;;;;;27.40;37.29;98496.94;4957957;28;104977;-66
2022/07/26 16:52:36;;;;;;;1.80;0.90;;;;;;;27.70;36.71;98497.97;4953577;28;103279;-66
2022/07/26 16:55:09;;;;;;;2.70;1.25;;;;;;;27.96;36.02;98494.09;4949374;28;103918;-66
2022/07/26 16:57:38;;;;;;;3.00;1.00;;;;;;;26.90;37.71;98490.69;4943870;28;103306;-66
2022/07/26 17:00:09;;;;;;;2.40;1.13;;;;;;;26.68;38.50;98498.34;4945558;28;104152;-66
2022/07/26 17:02:38;;;;;;;2.13;1.02;;;;;;;26.73;37.68;98498.50;4946843;28;103199;-66
2022/07/26 17:05:07;;;;;;;3.23;2.93;;;;;;;27.12;37.79;98491.19;4949550;28;103485;-66
2022/07/26 17:07:36;;;;;;;1.83;1.30;;;;;;;26.76;38.44;98498.06;4947628;28;103509;-66
2022/07/26 17:10:06;;;;;;;3.40;1.00;;;;;;;27.06;38.07;98488.28;4939928;28;103260;-66
2022/07/26 17:12:34;;;;;;;1.90;0.80;;;;;;;26.71;38.46;98492.47;4944824;28;103119;-66
2022/07/26 17:15:04;;;;;;;2.63;0.80;;;;;;;27.24;37.84;98492.09;4944943;28;103763;-66
2022/07/26 17:17:32;;;;;;;2.63;1.07;;;;;;;27.02;37.11;98488.94;4948752;28;103681;-65
2022/07/26 17:20:00;;;;;;;1.83;0.90;;;;;;;27.22;37.16;98486.06;4941577;28;103410;-67
2022/07/26 17:22:29;;;;;;;1.38;0.93;;;;;;;27.10;37.22;98479.72;4948254;28;103030;-66
2022/07/26 17:24:57;;;;;;;1.75;0.90;;;;;;;27.10;37.71;98482.41;4950444;28;103017;-66